Time;durP1;ratioP1;P1;durP2;ratioP2;P2;SDS_P1;SDS_P2;PMS_P1;PMS_P2;Temp;Humidity;BMP_temperature;BMP_pressure;BME280_temperature;BME280_humidity;BME280_pressure;Samples;Min_cycle;Max_cycle;Signal;HPM_P1;HPM_P2
2022/08/20 00:00:22;;;;;;;;;;;;;;;24.50;100.00;97670.81;5118979;28;19942;-62
2022/08/20 00:02:49;;;;;;;;;;;;;;;24.53;100.00;97669.28;5122091;28;19995;-61
2022/08/20 00:05:19;;;;;;;;;;;;;;;24.50;100.00;97668.09;5122176;28;19930;-61
2022/08/20 00:07:46;;;;;;;;;;;;;;;24.48;100.00;97664.91;5119337;28;19959;-60
2022/08/20 00:10:12;;;;;;;;;;;;;;;24.41;100.00;97653.84;5118657;28;20004;-61
2022/08/20 00:12:42;;;;;;;;;;;;;;;24.33;100.00;97663.03;5102536;28;19974;-61
2022/08/20 00:15:09;;;;;;;;;;;;;;;24.16;100.00;97663.47;5122234;28;20398;-60
2022/08/20 00:17:36;;;;;;;;;;;;;;;23.87;100.00;97662.00;5120511;28;19958;-61
2022/08/20 00:20:04;;;;;;;;;;;;;;;24.04;100.00;97666.28;5118565;28;19928;-61
2022/08/20 00:22:30;;;;;;;;;;;;;;;24.02;100.00;97657.66;5119357;28;20545;-61
2022/08/20 00:24:57;;;;;;;;;;;;;;;24.02;100.00;97663.09;5124084;28;19924;-61
2022/08/20 00:27:23;;;;;;;;;;;;;;;24.17;100.00;97660.34;5118237;28;19923;-61
2022/08/20 00:29:51;;;;;;;;;;;;;;;24.16;100.00;97663.47;5118461;28;19967;-61
2022/08/20 00:32:17;;;;;;;;;;;;;;;24.25;100.00;97660.53;5118616;28;19952;-61
2022/08/20 00:34:43;;;;;;;;;;;;;;;24.25;100.00;97666.78;5121094;28;20000;-61
2022/08/20 00:37:10;;;;;;;;;;;;;;;24.33;100.00;97663.03;5122840;28;19927;-61
2022/08/20 00:39:36;;;;;;;;;;;;;;;24.29;100.00;97666.84;5124494;28;19931;-61
2022/08/20 00:42:03;;;;;;;;;;;;;;;24.25;100.00;97665.97;5122749;28;19935;-61
2022/08/20 00:44:29;;;;;;;;;;;;;;;24.30;100.00;97669.22;5123129;28;19951;-61
2022/08/20 00:46:58;;;;;;;;;;;;;;;24.30;100.00;97666.47;5126227;28;19954;-60
2022/08/20 00:49:26;;;;;;;;;;;;;;;24.23;100.00;97671.81;5125942;28;19927;-61
2022/08/20 00:51:56;;;;;;;;;;;;;;;24.18;100.00;97667.41;5122514;28;19924;-61
2022/08/20 00:54:24;;;;;;;;;;;;;;;24.27;100.00;97663.66;5128623;28;19943;-61
2022/08/20 00:56:54;;;;;;;;;;;;;;;24.17;100.00;97676.72;5114078;28;19931;-61
2022/08/20 00:59:22;;;;;;;;;;;;;;;24.02;100.00;97676.75;5113744;28;19928;-62
2022/08/20 01:01:49;;;;;;;;;;;;;;;24.13;100.00;97673.16;5113784;28;19924;-61
2022/08/20 01:04:17;;;;;;;;;;;;;;;24.07;100.00;97674.56;5113625;28;19956;-62
2022/08/20 01:06:43;;;;;;;;;;;;;;;24.23;100.00;97674.53;5113568;28;19924;-61
2022/08/20 01:09:10;;;;;;;;;;;;;;;24.35;100.00;97671.66;5113667;28;19991;-62
2022/08/20 01:11:37;;;;;;;;;;;;;;;24.43;100.00;97678.84;5113574;28;19951;-60
2022/08/20 01:14:18;;;;;;;;;;;;;;;24.16;100.00;97675.16;5113670;28;19935;-60
2022/08/20 01:16:46;;;;;;;;;;;;;;;24.05;100.00;97670.56;5116344;28;19928;-61
2022/08/20 01:19:13;;;;;;;;;;;;;;;24.17;100.00;97674.00;5125489;28;20593;-60
2022/08/20 01:21:41;;;;;;;;;;;;;;;24.26;100.00;97673.81;5123490;28;19947;-62
2022/08/20 01:24:11;;;;;;;;;;;;;;;24.34;100.00;97670.09;5125941;28;19924;-61
2022/08/20 01:26:39;;;;;;;;;;;;;;;24.36;100.00;97678.69;5116827;28;19931;-61
2022/08/20 01:29:07;;;;;;;;;;;;;;;24.40;100.00;97676.03;5125336;28;19978;-61
2022/08/20 01:31:35;;;;;;;;;;;;;;;24.15;100.00;97670.06;5123813;28;19991;-61
2022/08/20 01:34:04;;;;;;;;;;;;;;;24.16;100.00;97675.16;5121674;28;19959;-62
2022/08/20 01:36:34;;;;;;;;;;;;;;;24.16;100.00;97671.66;5122258;28;19986;-60
2022/08/20 01:39:01;;;;;;;;;;;;;;;24.07;100.00;97671.81;5106888;28;19982;-61
2022/08/20 01:41:35;;;;;;;;;;;;;;;24.07;100.00;97671.03;5124554;28;20054;-60
2022/08/20 01:44:03;;;;;;;;;;;;;;;24.09;100.00;97680.44;5121401;28;19960;-61
2022/08/20 01:46:31;;;;;;;;;;;;;;;24.01;100.00;97680.63;5121998;28;20464;-61
2022/08/20 01:48:59;;;;;;;;;;;;;;;24.10;100.00;97676.56;5124636;28;19976;-60
2022/08/20 01:51:26;;;;;;;;;;;;;;;24.12;100.00;97679.75;5124716;28;19958;-61
2022/08/20 01:53:54;;;;;;;;;;;;;;;24.11;100.00;97672.69;5114878;28;19983;-60
2022/08/20 01:56:22;;;;;;;;;;;;;;;24.07;100.00;97679.22;5116906;28;19982;-61
2022/08/20 01:58:51;;;;;;;;;;;;;;;24.07;100.00;97682.75;5124228;28;19947;-62
2022/08/20 02:01:21;;;;;;;;;;;;;;;24.14;100.00;97680.19;5124482;28;19923;-61
2022/08/20 02:03:47;;;;;;;;;;;;;;;24.18;100.00;97680.25;5121559;28;19931;-61
2022/08/20 02:06:14;;;;;;;;;;;;;;;24.22;100.00;97681.13;5121160;28;19967;-60
2022/08/20 02:08:40;;;;;;;;;;;;;;;24.14;100.00;97682.91;5123292;28;19927;-62
2022/08/20 02:11:07;;;;;;;;;;;;;;;24.20;100.00;97677.97;5124645;28;19931;-61
2022/08/20 02:13:33;;;;;;;;;;;;;;;24.19;100.00;97673.66;5123385;28;19928;-61
2022/08/20 02:15:59;;;;;;;;;;;;;;;24.14;100.00;97679.38;5121077;28;19959;-60
2022/08/20 02:18:27;;;;;;;;;;;;;;;24.23;100.00;97679.19;5121049;28;20563;-60
2022/08/20 02:20:54;;;;;;;;;;;;;;;24.17;100.00;97681.41;5124392;28;20030;-61
2022/08/20 02:23:20;;;;;;;;;;;;;;;24.12;100.00;97687.94;5124212;28;20059;-61
2022/08/20 02:25:47;;;;;;;;;;;;;;;24.14;100.00;97677.44;5119273;28;19963;-60
2022/08/20 02:28:15;;;;;;;;;;;;;;;24.17;100.00;97681.41;5120814;28;19984;-61
2022/08/20 02:30:43;;;;;;;;;;;;;;;24.12;100.00;97689.88;5122997;28;19995;-62
2022/08/20 02:33:10;;;;;;;;;;;;;;;24.09;100.00;97680.44;5124186;28;19928;-61
2022/08/20 02:35:39;;;;;;;;;;;;;;;24.10;100.00;97682.03;5122454;28;19983;-61
2022/08/20 02:38:05;;;;;;;;;;;;;;;24.10;100.00;97679.31;5120274;28;19976;-60
2022/08/20 02:40:32;;;;;;;;;;;;;;;24.06;100.00;97685.81;5121229;28;19984;-60
2022/08/20 02:42:59;;;;;;;;;;;;;;;24.11;100.00;97677.38;5123825;28;19978;-61
2022/08/20 02:45:26;;;;;;;;;;;;;;;24.01;100.00;97689.63;5123617;28;19935;-61
2022/08/20 02:47:52;;;;;;;;;;;;;;;24.07;100.00;97687.41;5120317;28;19924;-61
2022/08/20 02:50:20;;;;;;;;;;;;;;;24.03;100.00;97691.97;5120055;28;19931;-61
2022/08/20 02:52:47;;;;;;;;;;;;;;;24.11;100.00;97699.19;5123162;28;19928;-61
2022/08/20 02:55:14;;;;;;;;;;;;;;;24.16;100.00;97698.94;5123514;28;19963;-62
2022/08/20 02:57:41;;;;;;;;;;;;;;;23.99;100.00;97697.34;5120019;28;19930;-62
2022/08/20 03:00:09;;;;;;;;;;;;;;;24.10;100.00;97708.50;5119639;28;19951;-61
2022/08/20 03:02:36;;;;;;;;;;;;;;;23.70;100.00;97706.03;5121330;28;19991;-62
2022/08/20 03:05:02;;;;;;;;;;;;;;;23.82;100.00;97700.47;5123456;28;20291;-61
2022/08/20 03:07:29;;;;;;;;;;;;;;;23.95;100.00;97703.88;5122909;28;19992;-61
2022/08/20 03:09:56;;;;;;;;;;;;;;;23.90;100.00;97715.03;5119841;28;19955;-61
2022/08/20 03:12:23;;;;;;;;;;;;;;;23.95;100.00;97709.34;5119879;28;19924;-62
2022/08/20 03:14:49;;;;;;;;;;;;;;;24.01;100.00;97711.44;5123153;28;19924;-61
2022/08/20 03:17:16;;;;;;;;;;;;;;;24.04;100.00;97715.41;5105215;28;19955;-61
2022/08/20 03:19:42;;;;;;;;;;;;;;;24.03;100.00;97709.13;5120740;28;19924;-61
2022/08/20 03:22:08;;;;;;;;;;;;;;;24.08;100.00;97710.78;5119687;28;19924;-61
2022/08/20 03:24:35;;;;;;;;;;;;;;;24.15;100.00;97708.25;5125991;28;19962;-62
2022/08/20 03:27:03;;;;;;;;;;;;;;;24.14;100.00;97709.38;5116177;28;19958;-60
2022/08/20 03:29:29;;;;;;;;;;;;;;;24.17;100.00;97711.41;5122275;28;19966;-61
2022/08/20 03:31:55;;;;;;;;;;;;;;;24.19;100.00;97711.88;5119444;28;19920;-61
2022/08/20 03:34:22;;;;;;;;;;;;;;;24.24;100.00;97710.78;5119406;28;19927;-61
2022/08/20 03:36:48;;;;;;;;;;;;;;;24.25;100.00;97712.38;5122394;28;20269;-60
2022/08/20 03:39:15;;;;;;;;;;;;;;;24.27;100.00;97707.34;5122652;28;19923;-62
2022/08/20 03:41:42;;;;;;;;;;;;;;;24.30;100.00;97721.06;5120353;28;20414;-61
2022/08/20 03:44:09;;;;;;;;;;;;;;;24.19;100.00;97720.06;5119147;28;19931;-61
2022/08/20 03:46:37;;;;;;;;;;;;;;;24.28;100.00;97728.03;5120439;28;19924;-61
2022/08/20 03:49:04;;;;;;;;;;;;;;;24.24;100.00;97735.34;5122537;28;19927;-61
2022/08/20 03:51:31;;;;;;;;;;;;;;;24.29;100.00;97732.34;5121635;28;20408;-61
2022/08/20 03:53:57;;;;;;;;;;;;;;;24.24;100.00;97733.41;5121595;28;19938;-63
2022/08/20 03:56:24;;;;;;;;;;;;;;;24.12;100.00;97745.22;5114115;28;19947;-61
2022/08/20 03:58:50;;;;;;;;;;;;;;;24.15;100.00;97739.06;5122421;28;19919;-60
2022/08/20 04:01:18;;;;;;;;;;;;;;;24.09;100.00;97743.19;5122340;28;19963;-61
2022/08/20 04:03:44;;;;;;;;;;;;;;;24.10;100.00;97741.25;5119657;28;19935;-62
2022/08/20 04:06:11;;;;;;;;;;;;;;;24.07;100.00;97737.31;5118730;28;19922;-61
2022/08/20 04:08:40;;;;;;;;;;;;;;;24.09;100.00;97735.00;5120319;28;19934;-64
2022/08/20 04:11:07;;;;;;;;;;;;;;;24.13;100.00;97737.84;5121875;28;19957;-62
2022/08/20 04:13:33;;;;;;;;;;;;;;;24.02;100.00;97734.03;5120483;28;20670;-61
2022/08/20 04:16:02;;;;;;;;;;;;;;;24.00;100.00;97734.41;5118828;28;19995;-61
2022/08/20 04:18:30;;;;;;;;;;;;;;;24.05;100.00;97728.66;5118995;28;19968;-62
2022/08/20 04:20:56;;;;;;;;;;;;;;;24.04;100.00;97734.50;5122237;28;19955;-61
2022/08/20 04:23:23;;;;;;;;;;;;;;;23.99;100.00;97729.28;5122129;28;19924;-61
2022/08/20 04:25:49;;;;;;;;;;;;;;;23.99;100.00;97724.63;5116998;28;20191;-61
2022/08/20 04:28:20;;;;;;;;;;;;;;;23.98;100.00;97730.44;5118687;28;19979;-61
2022/08/20 04:30:47;;;;;;;;;;;;;;;23.98;100.00;97733.97;5121556;28;19924;-61
2022/08/20 04:33:15;;;;;;;;;;;;;;;24.00;100.00;97741.78;5122154;28;20516;-61
2022/08/20 04:35:43;;;;;;;;;;;;;;;24.01;100.00;97738.72;5119814;28;19923;-62
2022/08/20 04:38:16;;;;;;;;;;;;;;;24.04;100.00;97735.28;5118464;28;19930;-61
2022/08/20 04:40:56;;;;;;;;;;;;;;;24.00;100.00;97745.31;5121179;28;19959;-61
2022/08/20 04:43:24;;;;;;;;;;;;;;;23.94;100.00;97744.00;5121936;28;19924;-61
2022/08/20 04:45:51;;;;;;;;;;;;;;;23.98;100.00;97744.09;5118578;28;19927;-61
2022/08/20 04:48:18;;;;;;;;;;;;;;;24.00;100.00;97748.03;5118537;28;19924;-62
2022/08/20 04:50:46;;;;;;;;;;;;;;;23.94;100.00;97748.66;5120987;28;19924;-61
2022/08/20 04:53:15;;;;;;;;;;;;;;;24.02;100.00;97750.41;5121892;28;19992;-61
2022/08/20 04:55:42;;;;;;;;;;;;;;;23.89;100.00;97752.44;5117634;28;19953;-62
2022/08/20 04:58:10;;;;;;;;;;;;;;;23.97;100.00;97756.13;5118319;28;19936;-61
2022/08/20 05:00:37;;;;;;;;;;;;;;;23.98;100.00;97755.00;5119758;28;19966;-61
2022/08/20 05:03:05;;;;;;;;;;;;;;;23.99;100.00;97757.34;5121950;28;19924;-61
2022/08/20 05:05:33;;;;;;;;;;;;;;;23.99;100.00;97764.75;5120806;28;19950;-61
2022/08/20 05:08:01;;;;;;;;;;;;;;;24.04;100.00;97764.50;5118222;28;19951;-60
2022/08/20 05:10:28;;;;;;;;;;;;;;;24.01;100.00;97759.75;5118161;28;19970;-60
2022/08/20 05:12:55;;;;;;;;;;;;;;;23.99;100.00;97768.28;5121734;28;19924;-61
2022/08/20 05:15:23;;;;;;;;;;;;;;;23.94;100.00;97773.22;5121633;28;19955;-61
2022/08/20 05:17:54;;;;;;;;;;;;;;;23.85;100.00;97770.66;5118109;28;19972;-62
2022/08/20 05:20:20;;;;;;;;;;;;;;;23.91;100.00;97771.97;5118023;28;19983;-61
2022/08/20 05:22:46;;;;;;;;;;;;;;;23.98;100.00;97785.81;5121213;28;19963;-61
2022/08/20 05:25:14;;;;;;;;;;;;;;;23.93;100.00;97786.06;5125270;28;19987;-62
2022/08/20 05:27:41;;;;;;;;;;;;;;;23.95;100.00;97785.72;5121657;28;19946;-62
2022/08/20 05:30:09;;;;;;;;;;;;;;;23.96;100.00;97784.56;5121547;28;19924;-62
2022/08/20 05:32:35;;;;;;;;;;;;;;;23.97;100.00;97784.22;5122786;28;19956;-61
2022/08/20 05:35:02;;;;;;;;;;;;;;;23.98;100.00;97791.25;5125176;28;19962;-61
2022/08/20 05:37:28;;;;;;;;;;;;;;;23.91;100.00;97788.34;5124397;28;20597;-61
2022/08/20 05:39:55;;;;;;;;;;;;;;;23.99;100.00;97790.09;5121625;28;19983;-60
2022/08/20 05:42:23;;;;;;;;;;;;;;;23.97;100.00;97791.59;5121558;28;19920;-62
2022/08/20 05:44:49;;;;;;;;;;;;;;;23.93;100.00;97788.78;5125024;28;20402;-61
2022/08/20 05:47:17;;;;;;;;;;;;;;;24.02;100.00;97785.88;5125265;28;19966;-61
2022/08/20 05:49:45;;;;;;;;;;;;;;;24.03;100.00;97787.47;5122683;28;19926;-60
2022/08/20 05:52:11;;;;;;;;;;;;;;;23.68;100.00;97787.38;5121621;28;19920;-61
2022/08/20 05:54:38;;;;;;;;;;;;;;;23.81;100.00;97786.16;5128038;28;19999;-61
2022/08/20 05:57:05;;;;;;;;;;;;;;;23.81;100.00;97793.53;5100544;28;19923;-61
2022/08/20 05:59:35;;;;;;;;;;;;;;;23.72;100.00;97785.53;5123990;28;19967;-61
2022/08/20 06:04:23;;;;;;;;;;;;;;;23.86;100.00;97780.41;5121320;28;20022;-61
2022/08/20 06:04:47;;;;;;;;;;;;;;;23.79;100.00;97790.38;5124338;28;19988;-61
2022/08/20 06:07:14;;;;;;;;;;;;;;;23.72;100.00;97784.72;5124940;28;19920;-60
2022/08/20 06:09:41;;;;;;;;;;;;;;;23.88;100.00;97783.59;5122664;28;19920;-60
2022/08/20 06:12:08;;;;;;;;;;;;;;;23.85;100.00;97788.97;5121347;28;19939;-61
2022/08/20 06:14:35;;;;;;;;;;;;;;;23.89;100.00;97790.63;5122122;28;19924;-60
2022/08/20 06:17:04;;;;;;;;;;;;;;;23.95;100.00;97783.75;5124665;28;19959;-62
2022/08/20 06:19:30;;;;;;;;;;;;;;;23.93;100.00;97791.50;5123955;28;19924;-61
2022/08/20 06:21:56;;;;;;;;;;;;;;;23.85;100.00;97792.50;5121133;28;19966;-64
2022/08/20 06:24:23;;;;;;;;;;;;;;;23.78;100.00;97795.03;5126935;28;20407;-61
2022/08/20 06:26:54;;;;;;;;;;;;;;;23.55;100.00;97796.78;5115832;28;19946;-61
2022/08/20 06:29:21;;;;;;;;;;;;;;;23.67;100.00;97801.38;5124176;28;19920;-60
2022/08/20 06:31:48;;;;;;;;;;;;;;;23.81;100.00;97796.25;5121130;28;19968;-61
2022/08/20 06:34:15;;;;;;;;;;;;;;;23.87;100.00;97806.56;5120131;28;19987;-61
2022/08/20 06:36:41;;;;;;;;;;;;;;;23.71;100.00;97799.50;5122025;28;19920;-61
2022/08/20 06:39:07;;;;;;;;;;;;;;;23.89;100.00;97795.31;5123927;28;19927;-60
2022/08/20 06:41:34;;;;;;;;;;;;;;;23.78;100.00;97796.97;5122489;28;19970;-62
2022/08/20 06:44:00;;;;;;;;;;;;;;;23.76;100.00;97801.97;5120267;28;19924;-61
2022/08/20 06:46:27;;;;;;;;;;;;;;;23.83;100.00;97804.91;5120109;28;19928;-61
2022/08/20 06:48:54;;;;;;;;;;;;;;;23.84;100.00;97807.25;5123691;28;19924;-61
2022/08/20 06:51:21;;;;;;;;;;;;;;;23.79;100.00;97802.06;5123470;28;19924;-61
2022/08/20 06:53:48;;;;;;;;;;;;;;;23.73;100.00;97808.13;5121942;28;19930;-61
2022/08/20 06:56:15;;;;;;;;;;;;;;;23.82;100.00;97811.47;5116936;28;19959;-60
2022/08/20 06:58:42;;;;;;;;;;;;;;;23.80;100.00;97808.31;5121917;28;19956;-61
2022/08/20 07:01:09;;;;;;;;;;;;;;;23.82;100.00;97811.47;5123413;28;19953;-61
2022/08/20 07:03:36;;;;;;;;;;;;;;;23.80;100.00;97816.50;5121745;28;20038;-61
2022/08/20 07:06:04;;;;;;;;;;;;;;;23.79;100.00;97812.97;5119881;28;19923;-61
2022/08/20 07:08:31;;;;;;;;;;;;;;;23.83;100.00;97821.25;5120247;28;19987;-61
2022/08/20 07:10:58;;;;;;;;;;;;;;;23.82;100.00;97812.28;5123297;28;19962;-60
2022/08/20 07:13:25;;;;;;;;;;;;;;;23.80;100.00;97813.78;5105370;28;19954;-61
2022/08/20 07:15:51;;;;;;;;;;;;;;;23.91;100.00;97825.75;5120115;28;19955;-60
2022/08/20 07:18:17;;;;;;;;;;;;;;;23.91;100.00;97821.09;5119402;28;19970;-61
2022/08/20 07:20:44;;;;;;;;;;;;;;;23.91;100.00;97818.34;5121886;28;20019;-61
2022/08/20 07:23:11;;;;;;;;;;;;;;;23.89;100.00;97817.13;5104884;28;19928;-62
2022/08/20 07:25:39;;;;;;;;;;;;;;;23.97;100.00;97819.66;5119489;28;19931;-62
2022/08/20 07:28:06;;;;;;;;;;;;;;;23.98;100.00;97825.94;5101415;28;19962;-62
2022/08/20 07:33:17;;;;;;;;;;;;;;;23.90;100.00;97827.66;5138799;27;20392;-61
2022/08/20 07:35:47;;;;;;;;;;;;;;;23.94;100.00;97835.94;5119978;28;19928;-61
2022/08/20 07:38:18;;;;;;;;;;;;;;;23.81;100.00;97829.78;5119020;28;19924;-61
2022/08/20 07:40:47;;;;;;;;;;;;;;;23.81;100.00;97837.97;5121637;28;19999;-61
2022/08/20 07:43:14;;;;;;;;;;;;;;;23.86;100.00;97834.19;5122644;28;19930;-62
2022/08/20 07:45:41;;;;;;;;;;;;;;;23.92;100.00;97835.50;5120174;28;19951;-62
2022/08/20 07:48:09;;;;;;;;;;;;;;;23.89;100.00;97847.13;5118894;28;19928;-61
2022/08/20 07:50:35;;;;;;;;;;;;;;;23.96;100.00;97844.56;5102069;28;19950;-61
2022/08/20 07:53:02;;;;;;;;;;;;;;;23.96;100.00;97850.81;5122580;28;19946;-60
2022/08/20 07:55:30;;;;;;;;;;;;;;;24.00;100.00;97848.19;5120456;28;19967;-61
2022/08/20 07:57:57;;;;;;;;;;;;;;;23.98;100.00;97847.75;5119031;28;19950;-61
2022/08/20 08:00:24;;;;;;;;;;;;;;;23.91;100.00;97850.28;5118907;28;19935;-61
2022/08/20 08:02:51;;;;;;;;;;;;;;;23.98;100.00;97851.28;5122497;28;20639;-61
2022/08/20 08:05:17;;;;;;;;;;;;;;;23.96;100.00;97856.28;5122544;28;19963;-62
2022/08/20 08:07:44;;;;;;;;;;;;;;;23.96;100.00;97855.47;5119732;28;19927;-61
2022/08/20 08:10:12;;;;;;;;;;;;;;;23.95;100.00;97859.38;5118883;28;19959;-61
2022/08/20 08:12:41;;;;;;;;;;;;;;;24.01;100.00;97863.41;5120388;28;19998;-61
2022/08/20 08:15:11;;;;;;;;;;;;;;;24.01;100.00;97857.97;5122511;28;19928;-61
2022/08/20 08:17:37;;;;;;;;;;;;;;;23.93;100.00;97856.19;5120701;28;19930;-62
2022/08/20 08:20:05;;;;;;;;;;;;;;;23.86;100.00;97856.78;5118859;28;19970;-62
2022/08/20 08:22:31;;;;;;;;;;;;;;;23.90;100.00;97873.25;5119300;28;19928;-61
2022/08/20 08:25:01;;;;;;;;;;;;;;;23.94;100.00;97864.03;5124714;28;20023;-61
2022/08/20 08:27:31;;;;;;;;;;;;;;;23.94;100.00;97860.50;5118790;28;19924;-62
2022/08/20 08:29:59;;;;;;;;;;;;;;;24.00;100.00;97859.09;5118898;28;19925;-62
2022/08/20 08:32:25;;;;;;;;;;;;;;;23.67;100.00;97862.16;5118741;28;19968;-62
2022/08/20 08:34:52;;;;;;;;;;;;;;;23.57;100.00;97854.47;5110366;28;20407;-63
2022/08/20 08:37:18;;;;;;;;;;;;;;;23.67;100.00;97871.09;5110082;28;19935;-61
2022/08/20 08:39:45;;;;;;;;;;;;;;;23.59;100.00;97860.34;5110250;28;19995;-61
2022/08/20 08:42:16;;;;;;;;;;;;;;;23.81;100.00;97858.97;5110172;28;19924;-61
2022/08/20 08:44:43;;;;;;;;;;;;;;;23.74;100.00;97862.31;5110082;28;19931;-62
2022/08/20 08:47:17;;;;;;;;;;;;;;;23.66;100.00;97863.28;5109758;28;19924;-60
2022/08/20 08:49:44;;;;;;;;;;;;;;;23.79;100.00;97867.53;5109586;28;19923;-61
2022/08/20 08:52:13;;;;;;;;;;;;;;;23.88;100.00;97870.09;5109737;28;19927;-61
2022/08/20 08:54:42;;;;;;;;;;;;;;;23.79;100.00;97872.19;5116240;28;19932;-62
2022/08/20 08:57:09;;;;;;;;;;;;;;;23.89;100.00;97872.44;5115537;28;19950;-62
2022/08/20 08:59:36;;;;;;;;;;;;;;;23.99;100.00;97865.69;5123408;28;19958;-61
2022/08/20 09:02:02;;;;;;;;;;;;;;;23.71;100.00;97875.84;5122054;28;19924;-61
2022/08/20 09:04:32;;;;;;;;;;;;;;;23.43;100.00;97881.31;5122302;28;19924;-61
2022/08/20 09:06:59;;;;;;;;;;;;;;;23.76;100.00;97884.59;5125620;28;19928;-61
2022/08/20 09:09:27;;;;;;;;;;;;;;;23.68;100.00;97877.34;5107653;28;19999;-61
2022/08/20 09:11:55;;;;;;;;;;;;;;;23.81;100.00;97881.59;5122263;28;20002;-63
2022/08/20 09:14:23;;;;;;;;;;;;;;;23.80;100.00;97873.78;5122038;28;19956;-61
2022/08/20 09:16:50;;;;;;;;;;;;;;;23.91;100.00;97883.81;5125023;28;19924;-61
2022/08/20 09:19:16;;;;;;;;;;;;;;;23.83;100.00;97873.06;5125182;28;19991;-61
2022/08/20 09:21:44;;;;;;;;;;;;;;;23.82;100.00;97875.00;5122716;28;19924;-61
2022/08/20 09:24:10;;;;;;;;;;;;;;;23.85;100.00;97879.75;5126436;28;19927;-61
2022/08/20 09:26:37;;;;;;;;;;;;;;;23.95;100.00;97878.47;5116720;28;19956;-60
2022/08/20 09:29:03;;;;;;;;;;;;;;;23.70;100.00;97877.81;5125249;28;19924;-61
2022/08/20 09:31:30;;;;;;;;;;;;;;;23.89;100.00;97882.59;5124610;28;19924;-60
2022/08/20 09:33:56;;;;;;;;;;;;;;;23.75;100.00;97871.28;5121784;28;19951;-61
2022/08/20 09:36:22;;;;;;;;;;;;;;;23.83;100.00;97882.03;5121446;28;19959;-62
2022/08/20 09:38:50;;;;;;;;;;;;;;;23.90;100.00;97886.88;5124691;28;19938;-60
2022/08/20 09:41:16;;;;;;;;;;;;;;;23.86;100.00;97891.47;5124862;28;19924;-62
2022/08/20 09:43:43;;;;;;;;;;;;;;;23.90;100.00;97895.06;5122566;28;20434;-62
2022/08/20 09:46:09;;;;;;;;;;;;;;;23.82;100.00;97898.75;5121210;28;20010;-61
2022/08/20 09:48:35;;;;;;;;;;;;;;;23.80;100.00;97890.13;5104253;28;19920;-61
2022/08/20 09:51:02;;;;;;;;;;;;;;;23.63;100.00;97891.25;5124850;28;19934;-61
2022/08/20 09:53:29;;;;;;;;;;;;;;;23.51;100.00;97902.19;5124230;28;19955;-61
2022/08/20 09:55:57;;;;;;;;;;;;;;;23.65;100.00;97897.13;5119454;28;19920;-61
2022/08/20 09:58:27;;;;;;;;;;;;;;;23.80;100.00;97896.38;5120823;28;20002;-61
2022/08/20 10:00:53;;;;;;;;;;;;;;;23.89;100.00;97897.00;5121095;28;19966;-61
2022/08/20 10:03:20;;;;;;;;;;;;;;;23.97;100.00;97900.72;5120731;28;19928;-61
2022/08/20 10:05:46;;;;;;;;;;;;;;;23.85;100.00;97903.50;5123796;28;19924;-61
2022/08/20 10:08:12;;;;;;;;;;;;;;;24.02;100.00;97897.72;5124456;28;19970;-61
2022/08/20 10:10:39;;;;;;;;;;;;;;;23.99;100.00;97906.59;5122538;28;19972;-61
2022/08/20 10:13:06;;;;;;;;;;;;;;;23.94;100.00;97898.69;5120680;28;19955;-60
2022/08/20 10:15:33;;;;;;;;;;;;;;;23.96;100.00;97905.38;5121545;28;19939;-60
2022/08/20 10:18:02;;;;;;;;;;;;;;;23.82;100.00;97912.38;5124518;28;19923;-60
2022/08/20 10:20:29;;;;;;;;;;;;;;;23.90;100.00;97906.78;5123984;28;19924;-61
2022/08/20 10:22:55;;;;;;;;;;;;;;;23.91;100.00;97908.38;5120804;28;19980;-61
2022/08/20 10:25:22;;;;;;;;;;;;;;;24.00;100.00;97905.47;5120507;28;19924;-62
2022/08/20 10:27:48;;;;;;;;;;;;;;;23.94;100.00;97902.22;5120687;28;19991;-61
2022/08/20 10:30:16;;;;;;;;;;;;;;;24.04;100.00;97901.69;5120987;28;19959;-60
2022/08/20 10:32:42;;;;;;;;;;;;;;;23.98;100.00;97903.09;5122976;28;19924;-60
2022/08/20 10:35:09;;;;;;;;;;;;;;;24.06;100.00;97909.53;5124061;28;19927;-61
2022/08/20 10:37:35;;;;;;;;;;;;;;;23.96;100.00;97910.03;5122322;28;19920;-61
2022/08/20 10:40:02;;;;;;;;;;;;;;;23.60;100.00;97905.56;5120557;28;19928;-61
2022/08/20 10:42:28;;;;;;;;;;;;;;;23.71;100.00;97908.56;5120397;28;19924;-62
2022/08/20 10:44:55;;;;;;;;;;;;;;;23.84;100.00;97910.09;5123628;28;19955;-61
2022/08/20 10:47:23;;;;;;;;;;;;;;;23.37;100.00;97910.72;5123520;28;19927;-60
2022/08/20 10:49:50;;;;;;;;;;;;;;;23.61;100.00;97904.44;5120396;28;19924;-62
2022/08/20 10:52:17;;;;;;;;;;;;;;;23.71;100.00;97914.03;5119946;28;19920;-62
2022/08/20 10:54:43;;;;;;;;;;;;;;;23.88;100.00;97916.44;5126686;28;19930;-61
2022/08/20 10:57:13;;;;;;;;;;;;;;;23.73;100.00;97917.22;5117664;28;19924;-62
2022/08/20 10:59:39;;;;;;;;;;;;;;;23.51;100.00;97924.81;5121553;28;20041;-62
2022/08/20 11:02:06;;;;;;;;;;;;;;;23.63;100.00;97924.75;5101814;28;19966;-61
2022/08/20 11:04:34;;;;;;;;;;;;;;;23.61;100.00;97918.84;5120594;28;19924;-62
2022/08/20 11:07:10;;;;;;;;;;;;;;;23.77;100.00;97923.56;5123469;28;19923;-61
2022/08/20 11:09:36;;;;;;;;;;;;;;;23.76;100.00;97916.50;5122026;28;20096;-61
2022/08/20 11:12:03;;;;;;;;;;;;;;;23.41;100.00;97919.84;5120080;28;19924;-61
2022/08/20 11:14:30;;;;;;;;;;;;;;;23.33;100.00;97914.50;5120263;28;19928;-61
2022/08/20 11:16:56;;;;;;;;;;;;;;;23.21;100.00;97912.59;5123467;28;19943;-61
2022/08/20 11:19:22;;;;;;;;;;;;;;;23.48;100.00;97919.25;5123070;28;19966;-61
2022/08/20 11:21:50;;;;;;;;;;;;;;;23.17;100.00;97925.34;5119595;28;19995;-61
2022/08/20 11:24:17;;;;;;;;;;;;;;;23.49;100.00;97921.63;5124948;28;20022;-61
2022/08/20 11:26:45;;;;;;;;;;;;;;;23.61;100.00;97921.56;5114892;28;19973;-62
2022/08/20 11:29:12;;;;;;;;;;;;;;;23.66;100.00;97920.53;5123402;28;19963;-61
2022/08/20 11:31:38;;;;;;;;;;;;;;;23.78;100.00;97919.69;5121319;28;19923;-61
2022/08/20 11:34:04;;;;;;;;;;;;;;;23.88;100.00;97919.97;5119660;28;20574;-61
2022/08/20 11:36:31;;;;;;;;;;;;;;;23.75;100.00;97913.00;5119813;28;19963;-62
2022/08/20 11:38:59;;;;;;;;;;;;;;;23.91;100.00;97918.47;5122689;28;19955;-61
2022/08/20 11:41:25;;;;;;;;;;;;;;;23.92;100.00;97915.38;5122647;28;19950;-60
2022/08/20 11:43:51;;;;;;;;;;;;;;;23.86;100.00;97919.50;5119161;28;19959;-60
2022/08/20 11:46:18;;;;;;;;;;;;;;;23.90;100.00;97922.34;5119254;28;19924;-62
2022/08/20 11:48:44;;;;;;;;;;;;;;;23.92;100.00;97918.13;5121665;28;19951;-60
2022/08/20 11:51:11;;;;;;;;;;;;;;;24.05;100.00;97918.84;5122760;28;19928;-62
2022/08/20 11:53:37;;;;;;;;;;;;;;;24.06;100.00;97920.44;5121176;28;20253;-62
2022/08/20 11:56:05;;;;;;;;;;;;;;;24.10;100.00;97916.66;5115776;28;19959;-61
2022/08/20 11:58:32;;;;;;;;;;;;;;;24.06;100.00;97929.41;5121783;28;19959;-62
2022/08/20 12:00:58;;;;;;;;;;;;;;;24.13;100.00;97918.72;5119127;28;19954;-61
2022/08/20 12:03:25;;;;;;;;;;;;;;;24.07;100.00;97922.03;5118891;28;19952;-61
2022/08/20 12:05:51;;;;;;;;;;;;;;;23.96;100.00;97919.00;5122114;28;20599;-63
2022/08/20 12:08:18;;;;;;;;;;;;;;;23.91;100.00;97921.19;5122309;28;19924;-61
2022/08/20 12:10:44;;;;;;;;;;;;;;;23.88;100.00;97917.25;5119777;28;19937;-62
2022/08/20 12:13:11;;;;;;;;;;;;;;;23.83;100.00;97914.00;5118895;28;19984;-62
2022/08/20 12:15:38;;;;;;;;;;;;;;;23.63;100.00;97916.56;5120246;28;19955;-62
2022/08/20 12:18:06;;;;;;;;;;;;;;;23.51;100.00;97911.19;5122335;28;19983;-62
2022/08/20 12:20:32;;;;;;;;;;;;;;;23.71;100.00;97909.38;5121281;28;19984;-60
2022/08/20 12:22:58;;;;;;;;;;;;;;;23.94;100.00;97920.50;5118617;28;19920;-61
2022/08/20 12:25:25;;;;;;;;;;;;;;;23.98;100.00;97919.47;5118527;28;19959;-61
2022/08/20 12:27:51;;;;;;;;;;;;;;;23.95;100.00;97914.69;5118770;28;19959;-61
2022/08/20 12:30:20;;;;;;;;;;;;;;;23.95;100.00;97914.69;5118464;28;19963;-62
2022/08/20 12:32:47;;;;;;;;;;;;;;;23.70;100.00;97910.53;5121641;28;19962;-61
2022/08/20 12:35:14;;;;;;;;;;;;;;;23.73;100.00;97903.56;5126423;28;19928;-61
2022/08/20 12:37:40;;;;;;;;;;;;;;;23.77;100.00;97907.19;5124325;28;19971;-61